Time;durP1;ratioP1;P1;durP2;ratioP2;P2;SDS_P1;SDS_P2;PMS_P1;PMS_P2;Temp;Humidity;BMP_temperature;BMP_pressure;BME280_temperature;BME280_humidity;BME280_pressure;Samples;Min_cycle;Max_cycle;Signal;HPM_P1;HPM_P2
2022/07/05 00:00:09;;;;;;;5.07;4.68;;;;;;;;;;5060475;28;20871;-90
2022/07/05 00:02:35;;;;;;;5.00;4.60;;;;;;;;;;5073879;28;20383;-90
2022/07/05 00:05:01;;;;;;;5.07;4.78;;;;;;;;;;5073594;28;20405;-88
2022/07/05 00:07:30;;;;;;;4.60;4.20;;;;;;;;;;5073646;28;20845;-87
2022/07/05 00:09:57;;;;;;;5.03;4.60;;;;;;;;;;5072338;28;20379;-87
2022/07/05 00:12:24;;;;;;;4.68;4.38;;;;;;;;;;5073556;28;20373;-87
2022/07/05 00:14:51;;;;;;;4.82;4.50;;;;;;;;;;5057717;28;20406;-87
2022/07/05 00:17:17;;;;;;;4.40;4.10;;;;;;;;;;5070490;28;20383;-87
2022/07/05 00:19:44;;;;;;;4.88;4.53;;;;;;;;;;5073416;28;20471;-87
2022/07/05 00:22:10;;;;;;;4.53;4.22;;;;;;;;;;5073141;28;20756;-87
2022/07/05 00:24:36;;;;;;;4.30;4.00;;;;;;;;;;5073219;28;20953;-87
2022/07/05 00:27:02;;;;;;;4.20;3.90;;;;;;;;;;5073077;28;20375;-88
2022/07/05 00:29:28;;;;;;;4.40;4.20;;;;;;;;;;5073270;28;20767;-87
2022/07/05 00:31:54;;;;;;;4.43;4.13;;;;;;;;;;5073073;28;20379;-87
2022/07/05 00:34:20;;;;;;;4.10;3.90;;;;;;;;;;5073069;28;20390;-87
2022/07/05 00:36:46;;;;;;;4.15;3.90;;;;;;;;;;5075488;28;20372;-89
2022/07/05 00:39:12;;;;;;;5.03;4.63;;;;;;;;;;5071626;28;20857;-90
2022/07/05 00:41:38;;;;;;;4.97;4.57;;;;;;;;;;5071628;28;20931;-90
2022/07/05 00:44:06;;;;;;;5.00;4.70;;;;;;;;;;5084897;28;20406;-89
2022/07/05 00:46:36;;;;;;;4.72;4.43;;;;;;;;;;5052935;28;20432;-89
2022/07/05 00:49:02;;;;;;;4.53;4.20;;;;;;;;;;5052716;28;20381;-87
2022/07/05 00:51:33;;;;;;;4.50;4.20;;;;;;;;;;5052306;28;20433;-87
2022/07/05 00:54:00;;;;;;;4.30;4.00;;;;;;;;;;5052766;28;20385;-89
2022/07/05 00:56:26;;;;;;;4.82;4.43;;;;;;;;;;5056034;28;20459;-89
2022/07/05 00:58:52;;;;;;;3.95;3.65;;;;;;;;;;5068403;28;20368;-90
2022/07/05 01:01:18;;;;;;;4.60;4.20;;;;;;;;;;5071698;28;20841;-90
2022/07/05 01:03:45;;;;;;;5.00;3.60;;;;;;;;;;5059014;28;20465;-89
2022/07/05 01:06:12;;;;;;;4.82;4.00;;;;;;;;;;5052450;28;20374;-89
2022/07/05 01:08:39;;;;;;;4.40;4.03;;;;;;;;;;5051291;28;20439;-89
2022/07/05 01:11:05;;;;;;;4.17;3.87;;;;;;;;;;5057178;28;20398;-89
2022/07/05 01:13:31;;;;;;;4.20;3.80;;;;;;;;;;5052291;28;20384;-90
2022/07/05 01:15:58;;;;;;;4.13;3.72;;;;;;;;;;5060899;28;20388;-89
2022/07/05 01:18:24;;;;;;;4.25;3.90;;;;;;;;;;5070343;28;20384;-89
2022/07/05 01:20:53;;;;;;;3.75;3.45;;;;;;;;;;5071018;28;20433;-90
2022/07/05 01:23:20;;;;;;;4.25;3.85;;;;;;;;;;5070688;28;20384;-89
2022/07/05 01:25:49;;;;;;;5.03;3.78;;;;;;;;;;5071478;28;20498;-89
2022/07/05 01:28:15;;;;;;;3.80;3.50;;;;;;;;;;5066256;28;20376;-89
2022/07/05 01:30:42;;;;;;;3.13;2.83;;;;;;;;;;5052194;28;20955;-87
2022/07/05 01:33:09;;;;;;;4.07;3.70;;;;;;;;;;5052473;28;20377;-88
2022/07/05 01:35:35;;;;;;;5.63;3.35;;;;;;;;;;5052154;28;20921;-87
2022/07/05 01:38:01;;;;;;;4.57;3.40;;;;;;;;;;5052060;28;20381;-87
2022/07/05 01:40:27;;;;;;;3.20;2.90;;;;;;;;;;5052054;28;20381;-88
2022/07/05 01:42:53;;;;;;;3.17;2.90;;;;;;;;;;5052072;28;20843;-88
2022/07/05 01:48:09;;;;;;;4.65;3.00;;;;;;;;;;5072308;28;20387;-87
2022/07/05 01:50:48;;;;;;;2.95;2.60;;;;;;;;;;5070351;28;20376;-88
2022/07/05 01:53:22;;;;;;;3.80;2.50;;;;;;;;;;5071988;28;20380;-87
2022/07/05 01:55:48;;;;;;;4.20;2.33;;;;;;;;;;5072057;28;20418;-87
2022/07/05 01:58:15;;;;;;;4.35;2.20;;;;;;;;;;5071532;28;20390;-87
2022/07/05 02:00:48;;;;;;;2.90;2.53;;;;;;;;;;5071988;28;20493;-88
2022/07/05 02:03:14;;;;;;;3.80;2.50;;;;;;;;;;5073787;28;20849;-87
2022/07/05 02:05:41;;;;;;;4.85;2.80;;;;;;;;;;5075778;28;20460;-87
2022/07/05 02:08:07;;;;;;;3.28;2.63;;;;;;;;;;5076006;28;20381;-88
2022/07/05 02:10:35;;;;;;;2.72;2.53;;;;;;;;;;5075784;28;20376;-87
2022/07/05 02:13:01;;;;;;;3.60;2.60;;;;;;;;;;5078345;28;20433;-89
2022/07/05 02:15:27;;;;;;;3.75;2.60;;;;;;;;;;5075682;28;20396;-90
2022/07/05 02:17:53;;;;;;;3.50;2.50;;;;;;;;;;5068923;28;20421;-89
2022/07/05 02:20:19;;;;;;;2.97;2.50;;;;;;;;;;5054315;28;20384;-90
2022/07/05 02:22:45;;;;;;;2.75;2.33;;;;;;;;;;5055376;28;20390;-90
2022/07/05 02:25:11;;;;;;;2.80;2.40;;;;;;;;;;5055528;28;20437;-90
2022/07/05 02:27:37;;;;;;;2.03;1.90;;;;;;;;;;5061210;28;20414;-89
2022/07/05 02:30:03;;;;;;;2.77;1.97;;;;;;;;;;5070062;28;20787;-89
2022/07/05 02:32:31;;;;;;;2.80;2.30;;;;;;;;;;5073719;28;20959;-89
2022/07/05 02:34:57;;;;;;;4.00;1.92;;;;;;;;;;5073415;28;20462;-90
2022/07/05 02:37:23;;;;;;;2.88;1.58;;;;;;;;;;5074420;28;20806;-89
2022/07/05 02:39:49;;;;;;;3.60;1.92;;;;;;;;;;5074589;28;20424;-89
2022/07/05 02:42:15;;;;;;;2.00;1.83;;;;;;;;;;5075050;28;20392;-89
2022/07/05 02:44:41;;;;;;;2.80;1.80;;;;;;;;;;5075161;28;20411;-90
2022/07/05 02:47:07;;;;;;;2.72;1.63;;;;;;;;;;5075370;28;20395;-89
2022/07/05 02:49:33;;;;;;;4.28;1.80;;;;;;;;;;5075004;28;20429;-89
2022/07/05 02:51:59;;;;;;;3.53;1.70;;;;;;;;;;5077686;28;20376;-90
2022/07/05 02:54:25;;;;;;;4.13;1.70;;;;;;;;;;5074494;28;20911;-90
2022/07/05 02:56:51;;;;;;;2.85;1.85;;;;;;;;;;5074988;28;20372;-89
2022/07/05 02:59:17;;;;;;;2.30;1.52;;;;;;;;;;5075091;28;20463;-90
2022/07/05 03:01:43;;;;;;;3.67;1.60;;;;;;;;;;5057083;28;20504;-89
2022/07/05 03:04:09;;;;;;;4.20;1.80;;;;;;;;;;5058847;28;20546;-89
2022/07/05 03:06:36;;;;;;;2.35;1.48;;;;;;;;;;5074774;28;20368;-89
2022/07/05 03:09:02;;;;;;;3.05;1.60;;;;;;;;;;5066932;28;20382;-89
2022/07/05 03:11:28;;;;;;;2.88;1.70;;;;;;;;;;5068786;28;20463;-90
2022/07/05 03:13:54;;;;;;;3.50;1.73;;;;;;;;;;5060511;28;20877;-89
2022/07/05 03:16:21;;;;;;;3.90;1.60;;;;;;;;;;5061375;28;20402;-89
2022/07/05 03:18:47;;;;;;;3.03;1.67;;;;;;;;;;5054550;28;20377;-90
2022/07/05 03:21:13;;;;;;;4.60;1.90;;;;;;;;;;5054529;28;20464;-90
2022/07/05 03:23:39;;;;;;;2.35;1.75;;;;;;;;;;5053217;28;20480;-89
2022/07/05 03:26:05;;;;;;;4.35;1.90;;;;;;;;;;5054164;28;20484;-89
2022/07/05 03:28:32;;;;;;;2.70;1.60;;;;;;;;;;5054775;28;20385;-90
2022/07/05 03:30:58;;;;;;;4.65;2.00;;;;;;;;;;5054255;28;20461;-89
2022/07/05 03:33:24;;;;;;;3.97;1.85;;;;;;;;;;5054431;28;20434;-90
2022/07/05 03:35:50;;;;;;;3.63;1.80;;;;;;;;;;5054373;28;20792;-89
2022/07/05 03:38:16;;;;;;;3.70;1.85;;;;;;;;;;5054275;28;20377;-89
2022/07/05 03:40:42;;;;;;;4.20;1.73;;;;;;;;;;5054147;28;20381;-89
2022/07/05 03:43:09;;;;;;;4.50;1.75;;;;;;;;;;5053139;28;20390;-90
2022/07/05 03:45:35;;;;;;;5.60;1.95;;;;;;;;;;5052848;28;20970;-90
2022/07/05 03:48:01;;;;;;;3.25;1.80;;;;;;;;;;5054084;28;20443;-89
2022/07/05 03:50:28;;;;;;;3.50;1.77;;;;;;;;;;5054140;28;20463;-89
2022/07/05 03:52:54;;;;;;;2.20;1.67;;;;;;;;;;5053951;28;20409;-89
2022/07/05 03:55:20;;;;;;;3.35;1.92;;;;;;;;;;5053977;28;20948;-89
2022/07/05 03:57:47;;;;;;;4.38;1.70;;;;;;;;;;5053700;28;20461;-89
2022/07/05 04:00:13;;;;;;;2.05;1.83;;;;;;;;;;5052820;28;20817;-89
2022/07/05 04:02:39;;;;;;;4.88;2.00;;;;;;;;;;5062133;28;20389;-89
2022/07/05 04:05:06;;;;;;;3.47;2.20;;;;;;;;;;5064535;28;20781;-89
2022/07/05 04:07:33;;;;;;;3.92;1.70;;;;;;;;;;5074898;28;20760;-89
2022/07/05 04:09:59;;;;;;;5.03;2.00;;;;;;;;;;5073512;28;20372;-90
2022/07/05 04:12:25;;;;;;;2.75;2.20;;;;;;;;;;5073617;28;20417;-89
2022/07/05 04:14:51;;;;;;;3.60;1.92;;;;;;;;;;5073659;28;20912;-90
2022/07/05 04:17:17;;;;;;;3.60;1.95;;;;;;;;;;5072914;28;20383;-89
2022/07/05 04:19:44;;;;;;;3.10;2.00;;;;;;;;;;5073418;28;20857;-89
2022/07/05 04:22:10;;;;;;;5.60;2.30;;;;;;;;;;5073274;28;20834;-90
2022/07/05 04:25:16;;;;;;;3.97;2.47;;;;;;;;;;5076567;28;20435;-89
2022/07/05 04:27:24;;;;;;;5.68;2.00;;;;;;;;;;5073361;28;20796;-89
2022/07/05 04:29:50;;;;;;;3.40;2.20;;;;;;;;;;5071701;28;20926;-89
2022/07/05 04:32:16;;;;;;;5.85;3.35;;;;;;;;;;5073258;28;20384;-89
2022/07/05 04:34:42;;;;;;;5.30;3.90;;;;;;;;;;5071785;28;20468;-90
2022/07/05 04:37:08;;;;;;;6.85;3.75;;;;;;;;;;5071876;28;20384;-90
2022/07/05 04:39:34;;;;;;;4.75;2.30;;;;;;;;;;5071557;28;20387;-89
2022/07/05 04:42:00;;;;;;;5.78;2.00;;;;;;;;;;5071699;28;20384;-90
2022/07/05 04:44:26;;;;;;;2.42;2.05;;;;;;;;;;5075386;28;20907;-89
2022/07/05 04:46:52;;;;;;;2.83;1.73;;;;;;;;;;5076847;28;20464;-89
2022/07/05 04:49:18;;;;;;;3.92;2.25;;;;;;;;;;5051653;28;20465;-90
2022/07/05 04:51:44;;;;;;;3.88;1.80;;;;;;;;;;5052124;28;20908;-89
2022/07/05 04:54:10;;;;;;;4.47;1.77;;;;;;;;;;5052943;28;20389;-89
2022/07/05 04:56:36;;;;;;;7.22;1.77;;;;;;;;;;5052770;28;20385;-89
2022/07/05 04:59:02;;;;;;;2.07;1.53;;;;;;;;;;5053103;28;20392;-89
2022/07/05 05:01:28;;;;;;;3.45;1.70;;;;;;;;;;5051644;28;20412;-90
2022/07/05 05:03:57;;;;;;;2.22;1.90;;;;;;;;;;5057326;28;20941;-89
2022/07/05 05:06:22;;;;;;;1.90;1.70;;;;;;;;;;5071061;28;20379;-89
2022/07/05 05:08:48;;;;;;;2.95;1.67;;;;;;;;;;5070184;28;20761;-90
2022/07/05 05:11:14;;;;;;;2.87;1.60;;;;;;;;;;5060209;28;20503;-89
2022/07/05 05:13:45;;;;;;;3.20;1.77;;;;;;;;;;5056739;28;20372;-89
2022/07/05 05:16:11;;;;;;;5.38;1.75;;;;;;;;;;5072456;28;20376;-90
2022/07/05 05:18:37;;;;;;;3.70;2.10;;;;;;;;;;5072358;28;20460;-90
2022/07/05 05:21:03;;;;;;;2.63;1.67;;;;;;;;;;5071289;28;20504;-89
2022/07/05 05:23:29;;;;;;;3.67;1.80;;;;;;;;;;5061565;28;20453;-89
2022/07/05 05:25:55;;;;;;;1.98;1.77;;;;;;;;;;5053621;28;20831;-89
2022/07/05 05:28:21;;;;;;;3.63;2.00;;;;;;;;;;5071338;28;20383;-90
2022/07/05 05:30:47;;;;;;;4.07;2.20;;;;;;;;;;5072107;28;20376;-90
2022/07/05 05:33:14;;;;;;;4.20;1.70;;;;;;;;;;5072377;28;20371;-89
2022/07/05 05:35:40;;;;;;;4.00;1.60;;;;;;;;;;5072198;28;20382;-90
2022/07/05 05:38:06;;;;;;;2.35;2.10;;;;;;;;;;5071785;28;20388;-90
2022/07/05 05:40:33;;;;;;;3.80;1.90;;;;;;;;;;5072086;28;20425;-90
2022/07/05 05:42:59;;;;;;;2.65;2.10;;;;;;;;;;5070076;28;20931;-90
2022/07/05 05:45:25;;;;;;;4.17;2.40;;;;;;;;;;5071533;28;20407;-90
2022/07/05 05:47:51;;;;;;;4.15;2.38;;;;;;;;;;5070399;28;20402;-90
2022/07/05 05:50:21;;;;;;;4.60;2.63;;;;;;;;;;5071986;28;20844;-90
2022/07/05 05:52:47;;;;;;;4.97;2.83;;;;;;;;;;5070747;28;20379;-90
2022/07/05 05:55:13;;;;;;;6.28;2.42;;;;;;;;;;5069147;28;20379;-90
2022/07/05 05:57:39;;;;;;;5.18;3.28;;;;;;;;;;5071149;28;20915;-90
2022/07/05 06:00:06;;;;;;;5.43;2.90;;;;;;;;;;5070629;28;20467;-89
2022/07/05 06:02:32;;;;;;;3.65;2.30;;;;;;;;;;5072003;28;20383;-89
2022/07/05 06:04:58;;;;;;;5.35;2.40;;;;;;;;;;5071703;28;20495;-90
2022/07/05 06:07:24;;;;;;;5.70;2.60;;;;;;;;;;5071844;28;20451;-88
2022/07/05 06:09:50;;;;;;;3.85;1.95;;;;;;;;;;5074187;28;20421;-88
2022/07/05 06:12:16;;;;;;;3.45;2.20;;;;;;;;;;5071862;28;20372;-89
2022/07/05 06:14:42;;;;;;;5.22;2.15;;;;;;;;;;5071805;28;20884;-88
2022/07/05 06:17:08;;;;;;;4.10;1.95;;;;;;;;;;5071678;28;20380;-89
2022/07/05 06:19:34;;;;;;;2.90;2.27;;;;;;;;;;5071742;28;20423;-89
2022/07/05 06:22:00;;;;;;;4.60;2.08;;;;;;;;;;5071720;28;20392;-91
2022/07/05 06:24:26;;;;;;;3.03;2.08;;;;;;;;;;5071599;28;20757;-88
2022/07/05 06:26:52;;;;;;;5.38;2.20;;;;;;;;;;5081449;28;20405;-88
2022/07/05 06:29:18;;;;;;;3.95;2.00;;;;;;;;;;5057645;28;20402;-88
2022/07/05 06:31:44;;;;;;;4.95;2.10;;;;;;;;;;5051584;28;20928;-87
2022/07/05 06:34:10;;;;;;;2.05;1.85;;;;;;;;;;5051569;28;20386;-88
2022/07/05 06:36:36;;;;;;;3.70;2.17;;;;;;;;;;5068321;28;20380;-88
2022/07/05 06:39:05;;;;;;;3.25;1.92;;;;;;;;;;5070546;28;20465;-88
2022/07/05 06:41:31;;;;;;;4.45;2.00;;;;;;;;;;5070242;28;20853;-88
2022/07/05 06:43:58;;;;;;;2.15;1.80;;;;;;;;;;5071612;28;20390;-88
2022/07/05 06:46:24;;;;;;;2.90;1.70;;;;;;;;;;5069133;28;20408;-89
2022/07/05 06:48:50;;;;;;;5.30;1.50;;;;;;;;;;5071084;28;20392;-89
2022/07/05 06:51:19;;;;;;;2.88;1.52;;;;;;;;;;5076356;28;20384;-91
2022/07/05 06:53:45;;;;;;;2.10;1.60;;;;;;;;;;5075160;28;20392;-90
2022/07/05 06:56:11;;;;;;;2.55;1.40;;;;;;;;;;5074716;28;20380;-89
2022/07/05 06:58:37;;;;;;;2.65;1.55;;;;;;;;;;5054113;28;20396;-90
2022/07/05 07:01:03;;;;;;;2.37;1.40;;;;;;;;;;5053687;28;20401;-90
2022/07/05 07:03:29;;;;;;;3.40;1.40;;;;;;;;;;5053643;28;20463;-90
2022/07/05 07:05:55;;;;;;;4.45;1.60;;;;;;;;;;5073863;28;20431;-90
2022/07/05 07:11:06;;;;;;;3.10;1.33;;;;;;;;;;5054895;28;20373;-89
2022/07/05 07:13:32;;;;;;;4.25;1.48;;;;;;;;;;5053784;28;20382;-89
2022/07/05 07:15:58;;;;;;;2.00;1.25;;;;;;;;;;5063818;28;20384;-90
2022/07/05 07:18:24;;;;;;;2.30;1.40;;;;;;;;;;5074683;28;20376;-89
2022/07/05 07:20:50;;;;;;;1.70;1.08;;;;;;;;;;5074253;28;20407;-90
2022/07/05 07:23:16;;;;;;;3.03;1.00;;;;;;;;;;5074638;28;20391;-89
2022/07/05 07:25:42;;;;;;;1.50;1.10;;;;;;;;;;5074593;28;20396;-90
2022/07/05 07:28:08;;;;;;;2.20;1.15;;;;;;;;;;5074552;28;20860;-90
2022/07/05 07:30:34;;;;;;;4.10;1.10;;;;;;;;;;5073366;28;20380;-89
2022/07/05 07:33:00;;;;;;;1.63;1.10;;;;;;;;;;5074375;28;20384;-90
2022/07/05 07:35:26;;;;;;;2.95;1.42;;;;;;;;;;5074373;28;20383;-90
2022/07/05 07:37:52;;;;;;;4.55;2.05;;;;;;;;;;5074341;28;20375;-90
2022/07/05 07:40:18;;;;;;;2.53;1.30;;;;;;;;;;5074548;28;20402;-90
2022/07/05 07:42:44;;;;;;;3.40;1.38;;;;;;;;;;5072999;28;20455;-90
2022/07/05 07:45:10;;;;;;;3.50;1.30;;;;;;;;;;5074151;28;20951;-89
2022/07/05 07:47:37;;;;;;;2.22;1.30;;;;;;;;;;5074220;28;20923;-91
2022/07/05 07:50:05;;;;;;;3.63;1.40;;;;;;;;;;5073999;28;20433;-90
2022/07/05 07:52:33;;;;;;;4.27;1.50;;;;;;;;;;5074110;28;20407;-90
2022/07/05 07:54:59;;;;;;;2.80;1.60;;;;;;;;;;5074062;28;20741;-90
2022/07/05 07:57:25;;;;;;;3.25;1.30;;;;;;;;;;5073661;28;20388;-89
2022/07/05 07:59:51;;;;;;;2.78;1.70;;;;;;;;;;5073295;28;20383;-89
2022/07/05 08:02:20;;;;;;;3.40;1.67;;;;;;;;;;5073723;28;20406;-90
2022/07/05 08:04:46;;;;;;;3.17;1.73;;;;;;;;;;5073573;28;20411;-89
2022/07/05 08:07:12;;;;;;;3.22;1.58;;;;;;;;;;5073739;28;20368;-89
2022/07/05 08:09:38;;;;;;;3.25;1.55;;;;;;;;;;5073630;28;20858;-90
2022/07/05 08:12:05;;;;;;;4.50;1.50;;;;;;;;;;5073692;28;20387;-90
2022/07/05 08:14:31;;;;;;;2.42;1.50;;;;;;;;;;5073651;28;20868;-90
2022/07/05 08:16:58;;;;;;;2.80;1.63;;;;;;;;;;5073493;28;20384;-90
2022/07/05 08:22:09;;;;;;;3.38;2.17;;;;;;;;;;5063873;28;20523;-90
2022/07/05 08:24:36;;;;;;;3.63;3.00;;;;;;;;;;5066772;28;20811;-90
2022/07/05 08:27:02;;;;;;;7.00;4.43;;;;;;;;;;5073278;28;20383;-89
2022/07/05 08:29:28;;;;;;;6.35;3.90;;;;;;;;;;5073103;28;20367;-89
2022/07/05 08:31:54;;;;;;;8.35;4.50;;;;;;;;;;5073219;28;20379;-90
2022/07/05 08:34:20;;;;;;;7.43;5.60;;;;;;;;;;5073099;28;20372;-90
2022/07/05 08:36:47;;;;;;;9.50;6.60;;;;;;;;;;5073134;28;20429;-90
2022/07/05 08:39:14;;;;;;;11.02;6.85;;;;;;;;;;5073025;28;20388;-90
2022/07/05 08:41:41;;;;;;;15.15;6.80;;;;;;;;;;5071628;28;20799;-90
2022/07/05 08:44:07;;;;;;;11.30;7.30;;;;;;;;;;5063832;28;20871;-90
2022/07/05 08:46:34;;;;;;;9.25;6.70;;;;;;;;;;5052988;28;20453;-91
2022/07/05 08:49:04;;;;;;;9.02;5.80;;;;;;;;;;5051670;28;20381;-90
2022/07/05 08:51:32;;;;;;;9.20;6.27;;;;;;;;;;5070473;28;20466;-91
2022/07/05 08:53:58;;;;;;;12.55;7.15;;;;;;;;;;5072136;28;20378;-91
2022/07/05 08:56:24;;;;;;;11.05;6.55;;;;;;;;;;5056586;28;20381;-91
2022/07/05 08:58:50;;;;;;;10.23;6.57;;;;;;;;;;5064049;28;20379;-91
2022/07/05 09:01:17;;;;;;;9.38;6.35;;;;;;;;;;5057203;28;20435;-90
2022/07/05 09:03:43;;;;;;;8.10;4.22;;;;;;;;;;5053420;28;20390;-91
2022/07/05 09:06:11;;;;;;;3.90;2.58;;;;;;;;;;5072561;28;20399;-91
2022/07/05 09:08:40;;;;;;;5.47;2.70;;;;;;;;;;5072576;28;20391;-90
2022/07/05 09:11:11;;;;;;;4.30;2.47;;;;;;;;;;5072404;28;20372;-91
2022/07/05 09:13:38;;;;;;;4.22;2.92;;;;;;;;;;5072388;28;20891;-90
2022/07/05 09:16:04;;;;;;;5.63;2.57;;;;;;;;;;5072510;28;20375;-91
2022/07/05 09:18:47;;;;;;;3.42;2.00;;;;;;;;;;5072356;28;20387;-90
2022/07/05 09:21:14;;;;;;;5.18;2.13;;;;;;;;;;5072141;28;20387;-91
2022/07/05 09:23:40;;;;;;;5.47;2.35;;;;;;;;;;5072399;28;20471;-91
2022/07/05 09:26:06;;;;;;;4.47;2.47;;;;;;;;;;5072569;28;20406;-91
2022/07/05 09:28:32;;;;;;;5.13;1.77;;;;;;;;;;5074753;28;20387;-90
2022/07/05 09:30:58;;;;;;;3.78;1.70;;;;;;;;;;5067171;28;20741;-91
2022/07/05 09:33:24;;;;;;;2.35;1.55;;;;;;;;;;5061230;28;20477;-91
2022/07/05 09:35:57;;;;;;;1.80;0.93;;;;;;;;;;5065186;28;20825;-90
2022/07/05 09:38:24;;;;;;;1.98;0.70;;;;;;;;;;5072090;28;20864;-90
2022/07/05 09:40:51;;;;;;;4.05;1.02;;;;;;;;;;5072218;28;20402;-90
2022/07/05 09:43:18;;;;;;;1.52;0.93;;;;;;;;;;5063822;28;20381;-90
2022/07/05 09:45:51;;;;;;;1.50;0.80;;;;;;;;;;5064354;28;20410;-89
2022/07/05 09:48:17;;;;;;;2.25;0.90;;;;;;;;;;5072172;28;20371;-89
2022/07/05 09:50:43;;;;;;;2.00;0.80;;;;;;;;;;5052641;28;20924;-89
2022/07/05 09:53:11;;;;;;;4.35;0.80;;;;;;;;;;5059811;28;20387;-90
2022/07/05 09:55:38;;;;;;;2.67;1.50;;;;;;;;;;5070995;28;20899;-90
2022/07/05 09:58:04;;;;;;;2.35;1.42;;;;;;;;;;5071447;28;20392;-90
2022/07/05 10:00:30;;;;;;;2.90;1.70;;;;;;;;;;5073438;28;20420;-90
2022/07/05 10:03:02;;;;;;;3.42;1.10;;;;;;;;;;5074699;28;20392;-91
2022/07/05 10:05:29;;;;;;;1.40;0.88;;;;;;;;;;5070396;28;20903;-90
2022/07/05 10:07:56;;;;;;;2.10;1.10;;;;;;;;;;5069571;28;20373;-90
2022/07/05 10:10:23;;;;;;;4.13;1.80;;;;;;;;;;5070758;28;20376;-90
2022/07/05 10:12:50;;;;;;;5.53;1.65;;;;;;;;;;5070147;28;20406;-90
2022/07/05 10:15:19;;;;;;;2.33;1.88;;;;;;;;;;5071486;28;20745;-89
2022/07/05 10:17:46;;;;;;;3.28;2.05;;;;;;;;;;5072017;28;20380;-90
2022/07/05 10:20:18;;;;;;;7.78;2.45;;;;;;;;;;5070302;28;20860;-90
2022/07/05 10:22:44;;;;;;;4.72;1.63;;;;;;;;;;5073450;28;20411;-91
2022/07/05 10:25:10;;;;;;;3.25;1.52;;;;;;;;;;5073441;28;20761;-90
2022/07/05 10:27:37;;;;;;;4.03;1.70;;;;;;;;;;5075122;28;20372;-90
2022/07/05 10:30:04;;;;;;;4.18;1.50;;;;;;;;;;5080290;28;20418;-90
2022/07/05 10:32:31;;;;;;;2.27;1.40;;;;;;;;;;5073614;28;20764;-89
2022/07/05 10:34:58;;;;;;;3.05;1.70;;;;;;;;;;5073822;28;20441;-90
2022/07/05 10:37:25;;;;;;;4.82;3.13;;;;;;;;;;5077904;28;20860;-90
2022/07/05 10:39:51;;;;;;;3.42;1.98;;;;;;;;;;5075393;28;20860;-91
2022/07/05 10:42:18;;;;;;;2.05;1.65;;;;;;;;;;5074325;28;20390;-89
2022/07/05 10:44:44;;;;;;;5.20;2.05;;;;;;;;;;5074930;28;20427;-91
2022/07/05 10:47:11;;;;;;;3.03;1.83;;;;;;;;;;5075298;28;20861;-91
2022/07/05 10:49:38;;;;;;;4.35;1.90;;;;;;;;;;5075206;28;20384;-89
2022/07/05 10:52:05;;;;;;;3.40;1.75;;;;;;;;;;5075156;28;20371;-90
2022/07/05 10:54:31;;;;;;;4.03;1.45;;;;;;;;;;5073444;28;20396;-89
2022/07/05 10:57:17;;;;;;;3.90;1.55;;;;;;;;;;5071302;28;20521;-90
2022/07/05 11:00:02;;;;;;;2.30;1.38;;;;;;;;;;5074572;28;20961;-90
2022/07/05 11:02:28;;;;;;;3.33;1.20;;;;;;;;;;5074478;28;20384;-90
2022/07/05 11:04:57;;;;;;;2.45;1.20;;;;;;;;;;5069338;28;20406;-92
2022/07/05 11:07:42;;;;;;;4.25;1.23;;;;;;;;;;5066687;28;20384;-91
2022/07/05 11:10:08;;;;;;;2.00;1.02;;;;;;;;;;5072279;28;20458;-91
2022/07/05 11:12:37;;;;;;;3.28;1.25;;;;;;;;;;5075372;28;20494;-91
2022/07/05 11:15:10;;;;;;;1.48;1.08;;;;;;;;;;5074897;28;20387;-92
2022/07/05 11:17:36;;;;;;;2.10;1.00;;;;;;;;;;5070258;28;20385;-92
2022/07/05 11:20:05;;;;;;;1.98;1.00;;;;;;;;;;5065643;28;20732;-91
2022/07/05 11:22:32;;;;;;;3.38;1.30;;;;;;;;;;5074812;28;20467;-90
2022/07/05 11:24:58;;;;;;;2.17;1.10;;;;;;;;;;5073798;28;20399;-91
2022/07/05 11:27:24;;;;;;;1.48;0.90;;;;;;;;;;5072829;28;20419;-91
2022/07/05 11:29:51;;;;;;;1.63;0.93;;;;;;;;;;5073174;28;20404;-90
2022/07/05 11:32:17;;;;;;;3.30;1.27;;;;;;;;;;5074695;28;20380;-91
2022/07/05 11:34:44;;;;;;;3.00;1.20;;;;;;;;;;5073055;28;20398;-91
2022/07/05 11:37:34;;;;;;;3.08;1.33;;;;;;;;;;5071909;28;20915;-91
2022/07/05 11:40:24;;;;;;;4.33;1.37;;;;;;;;;;5072148;28;20429;-90
2022/07/05 11:42:50;;;;;;;1.80;1.13;;;;;;;;;;5072938;28;20407;-90
2022/07/05 11:45:17;;;;;;;1.95;1.02;;;;;;;;;;5072055;28;20408;-90
2022/07/05 11:47:43;;;;;;;2.30;1.05;;;;;;;;;;5072250;28;20471;-91
2022/07/05 11:50:10;;;;;;;2.40;0.80;;;;;;;;;;5072024;28;20411;-90
2022/07/05 11:52:36;;;;;;;2.30;1.00;;;;;;;;;;5072304;28;20380;-91
2022/07/05 11:55:06;;;;;;;2.60;0.90;;;;;;;;;;5072248;28;20386;-91
2022/07/05 11:57:32;;;;;;;1.58;0.73;;;;;;;;;;5072124;28;20372;-91
2022/07/05 11:59:58;;;;;;;2.33;0.70;;;;;;;;;;5072011;28;20384;-91
2022/07/05 12:02:24;;;;;;;3.80;1.00;;;;;;;;;;5072126;28;21031;-91
2022/07/05 12:04:51;;;;;;;1.40;1.00;;;;;;;;;;5069154;28;20403;-91
2022/07/05 12:07:30;;;;;;;1.63;0.80;;;;;;;;;;5070710;28;20380;-90
2022/07/05 12:12:42;;;;;;;2.05;0.80;;;;;;;;;;5071086;28;20383;-91
2022/07/05 12:15:18;;;;;;;2.03;1.00;;;;;;;;;;5071273;28;20376;-90
2022/07/05 12:17:45;;;;;;;2.33;0.73;;;;;;;;;;5073497;28;20376;-90
2022/07/05 12:20:15;;;;;;;2.15;0.88;;;;;;;;;;5071400;28;20395;-91
2022/07/05 12:22:42;;;;;;;1.88;0.70;;;;;;;;;;5070336;28;20383;-92
2022/07/05 12:25:09;;;;;;;1.30;0.70;;;;;;;;;;5072698;28;20400;-91
2022/07/05 12:27:37;;;;;;;1.30;0.63;;;;;;;;;;5072753;28;20399;-90
2022/07/05 12:30:03;;;;;;;2.97;0.70;;;;;;;;;;5071443;28;20376;-91
2022/07/05 12:32:30;;;;;;;1.20;0.80;;;;;;;;;;5071528;28;20463;-91
2022/07/05 12:35:02;;;;;;;2.13;0.80;;;;;;;;;;5069897;28;20757;-90
2022/07/05 12:37:29;;;;;;;0.73;0.68;;;;;;;;;;5075135;28;20382;-91
2022/07/05 12:40:06;;;;;;;1.35;0.90;;;;;;;;;;5073064;28;20391;-92
2022/07/05 12:42:33;;;;;;;1.58;0.80;;;;;;;;;;5073494;28;20376;-91
2022/07/05 12:45:11;;;;;;;1.50;0.70;;;;;;;;;;5059191;28;20482;-91
2022/07/05 12:47:49;;;;;;;1.60;0.80;;;;;;;;;;5072518;28;20384;-91
2022/07/05 12:50:15;;;;;;;1.83;0.90;;;;;;;;;;5072933;28;20371;-91
2022/07/05 12:53:00;;;;;;;1.40;0.90;;;;;;;;;;5072939;28;20376;-90
2022/07/05 12:58:18;;;;;;;1.13;0.73;;;;;;;;;;5070717;28;20745;-91
2022/07/05 13:00:44;;;;;;;2.20;0.80;;;;;;;;;;5072712;28;20376;-90
2022/07/05 13:03:10;;;;;;;2.78;0.90;;;;;;;;;;5072668;28;20520;-90
2022/07/05 13:05:36;;;;;;;2.00;0.90;;;;;;;;;;5072654;28;20407;-91
2022/07/05 13:08:02;;;;;;;2.08;0.90;;;;;;;;;;5072637;28;20386;-90
2022/07/05 13:10:31;;;;;;;2.70;0.95;;;;;;;;;;5071646;28;20379;-90
2022/07/05 13:12:58;;;;;;;1.45;0.80;;;;;;;;;;5072618;28;20856;-89
2022/07/05 13:15:24;;;;;;;1.63;0.90;;;;;;;;;;5072514;28;20384;-91
2022/07/05 13:17:50;;;;;;;2.37;0.90;;;;;;;;;;5072398;28;20411;-91
2022/07/05 13:20:17;;;;;;;2.28;1.02;;;;;;;;;;5072440;28;20402;-90
2022/07/05 13:22:43;;;;;;;3.25;0.90;;;;;;;;;;5072470;28;20395;-91
2022/07/05 13:25:11;;;;;;;3.92;1.08;;;;;;;;;;5072504;28;20403;-90
2022/07/05 13:27:37;;;;;;;1.95;0.88;;;;;;;;;;5071093;28;20947;-90
2022/07/05 13:30:04;;;;;;;2.60;0.93;;;;;;;;;;5072307;28;20375;-90
2022/07/05 13:32:31;;;;;;;2.67;0.95;;;;;;;;;;5072300;28;20380;-89
2022/07/05 13:34:57;;;;;;;2.03;1.10;;;;;;;;;;5072297;28;20433;-89
2022/07/05 13:37:23;;;;;;;1.73;1.05;;;;;;;;;;5071044;28;20462;-89
2022/07/05 13:39:49;;;;;;;2.40;1.00;;;;;;;;;;5070829;28;20920;-90
2022/07/05 13:42:15;;;;;;;3.33;1.00;;;;;;;;;;5072221;28;20518;-91
2022/07/05 13:44:41;;;;;;;1.33;0.77;;;;;;;;;;5072144;28;20892;-90
2022/07/05 13:47:07;;;;;;;1.23;0.70;;;;;;;;;;5072184;28;20368;-90
2022/07/05 13:49:33;;;;;;;3.15;1.00;;;;;;;;;;5072010;28;20796;-90
2022/07/05 13:52:01;;;;;;;1.90;0.88;;;;;;;;;;5071824;28;20469;-90
2022/07/05 13:54:27;;;;;;;4.53;1.10;;;;;;;;;;5072016;28;20853;-90
2022/07/05 13:56:53;;;;;;;2.47;0.80;;;;;;;;;;5058018;28;20875;-90
2022/07/05 13:59:19;;;;;;;1.05;0.70;;;;;;;;;;5073864;28;20383;-90
2022/07/05 14:01:45;;;;;;;1.75;0.80;;;;;;;;;;5074982;28;20455;-90
2022/07/05 14:04:11;;;;;;;0.80;0.80;;;;;;;;;;5074403;28;20729;-90
2022/07/05 14:06:38;;;;;;;2.53;0.90;;;;;;;;;;5058515;28;20404;-90
2022/07/05 14:09:04;;;;;;;1.65;1.00;;;;;;;;;;5074300;28;20931;-90
2022/07/05 14:11:30;;;;;;;1.48;0.90;;;;;;;;;;5075914;28;20920;-90
2022/07/05 14:13:58;;;;;;;1.63;0.90;;;;;;;;;;5074239;28;20848;-91
2022/07/05 14:16:25;;;;;;;1.60;0.80;;;;;;;;;;5075161;28;20383;-90
2022/07/05 14:18:52;;;;;;;1.73;1.00;;;;;;;;;;5075839;28;20384;-91
2022/07/05 14:21:18;;;;;;;1.80;1.00;;;;;;;;;;5076019;28;20394;-90
2022/07/05 14:23:51;;;;;;;2.03;0.90;;;;;;;;;;5075475;28;20505;-90
2022/07/05 14:26:17;;;;;;;1.17;0.80;;;;;;;;;;5075238;28;20407;-90
2022/07/05 14:28:43;;;;;;;1.15;0.77;;;;;;;;;;5075235;28;20382;-91
2022/07/05 14:31:10;;;;;;;1.10;0.70;;;;;;;;;;5075457;28;20384;-90
2022/07/05 14:33:37;;;;;;;1.30;0.87;;;;;;;;;;5078076;28;20378;-91
2022/07/05 14:36:04;;;;;;;3.25;0.93;;;;;;;;;;5075823;28;20415;-91
2022/07/05 14:38:30;;;;;;;3.97;0.90;;;;;;;;;;5074789;28;20379;-90
2022/07/05 14:40:56;;;;;;;1.27;0.90;;;;;;;;;;5072886;28;20423;-90
2022/07/05 14:43:22;;;;;;;2.33;1.20;;;;;;;;;;5077379;28;20861;-89
2022/07/05 14:45:48;;;;;;;2.40;1.20;;;;;;;;;;5074466;28;20437;-90
2022/07/05 14:48:14;;;;;;;2.78;0.73;;;;;;;;;;5073069;28;20384;-91
2022/07/05 14:50:40;;;;;;;2.58;0.95;;;;;;;;;;5074001;28;20388;-91
2022/07/05 14:53:08;;;;;;;1.60;0.70;;;;;;;;;;5074022;28;20865;-90
2022/07/05 14:55:35;;;;;;;0.73;0.68;;;;;;;;;;5073385;28;20706;-91